Terminal Aerodrome Forecast
Issued by NWS Tuscon, AZ

Home | Current Version | Previous Version | Text Only | Print | Product List | Glossary On
Versions: 1 2 3 4 5 6 7 8 9 10 11 12
000
FTUS45 KTWC 021132
TAFDUG
TAF
KDUG 021132Z 0212/0312 09007KT P6SM FEW080
     FM021500 12011G17KT P6SM FEW080
     FM022100 16009KT P6SM SCT080
     FM030300 02008KT P6SM SKC=

USA.gov is the U.S. government's official web portal to all federal, state and local government web resources and services.